createdAt,value
2023-02-26T00:00:18.472Z,95.20
2023-02-26T00:01:18.449Z,95.20
2023-02-26T00:02:18.479Z,95.40
2023-02-26T00:03:18.490Z,95.40
2023-02-26T00:04:18.423Z,95.15
2023-02-26T00:05:18.401Z,94.88
2023-02-26T00:06:18.390Z,94.73
2023-02-26T00:07:18.390Z,94.46
2023-02-26T00:08:18.360Z,94.35
2023-02-26T00:09:18.351Z,94.35
2023-02-26T00:10:18.334Z,94.56
2023-02-26T00:11:18.329Z,94.35
2023-02-26T00:12:18.346Z,94.14
2023-02-26T00:13:18.301Z,94.14
2023-02-26T00:14:18.288Z,94.25
2023-02-26T00:15:18.293Z,94.35
2023-02-26T00:16:18.336Z,94.56
2023-02-26T00:17:18.448Z,94.56
2023-02-26T00:18:18.245Z,94.88
2023-02-26T00:19:18.231Z,95.20
2023-02-26T00:20:18.212Z,95.72
2023-02-26T00:21:18.202Z,95.93
2023-02-26T00:22:18.202Z,95.87
2023-02-26T00:23:18.176Z,95.97
2023-02-26T00:24:18.176Z,95.97
2023-02-26T00:25:18.149Z,95.87
2023-02-26T00:26:18.142Z,95.93
2023-02-26T00:27:18.144Z,96.25
2023-02-26T00:28:18.139Z,96.25
2023-02-26T00:29:18.106Z,96.14
2023-02-26T00:30:18.103Z,95.83
2023-02-26T00:31:18.235Z,95.62
2023-02-26T00:32:18.368Z,95.30
2023-02-26T00:33:18.050Z,94.98
2023-02-26T00:34:18.044Z,94.56
2023-02-26T00:35:18.019Z,94.46
2023-02-26T00:36:18.014Z,94.25
2023-02-26T00:37:18.027Z,94.04
2023-02-26T00:38:17.997Z,94.14
2023-02-26T00:39:17.976Z,94.25
2023-02-26T00:40:17.963Z,94.25
2023-02-26T00:41:17.971Z,94.14
2023-02-26T00:42:17.944Z,94.18
2023-02-26T00:43:17.942Z,94.25
2023-02-26T00:44:17.936Z,94.25
2023-02-26T00:45:17.921Z,94.40
2023-02-26T00:46:17.912Z,94.50
2023-02-26T00:47:17.876Z,94.71
2023-02-26T00:48:17.877Z,95.24
2023-02-26T00:49:17.876Z,95.87
2023-02-26T00:50:17.842Z,96.92
2023-02-26T00:51:17.830Z,97.87
2023-02-26T00:52:17.817Z,98.18
2023-02-26T00:53:17.814Z,98.39
2023-02-26T00:54:17.793Z,98.66
2023-02-26T00:55:17.772Z,98.56
2023-02-26T00:56:17.762Z,98.24
2023-02-26T00:57:17.753Z,98.46
2023-02-26T00:58:17.757Z,98.24
2023-02-26T00:59:17.725Z,97.88
2023-02-26T01:00:17.735Z,97.88
2023-02-26T01:01:17.713Z,97.88
2023-02-26T01:02:17.685Z,97.67
2023-02-26T01:03:17.693Z,97.25
2023-02-26T01:04:17.673Z,96.83
2023-02-26T01:05:17.656Z,96.51
2023-02-26T01:06:17.637Z,96.31
2023-02-26T01:07:17.632Z,95.99
2023-02-26T01:08:17.622Z,95.89
2023-02-26T01:09:17.596Z,95.83
2023-02-26T01:10:17.584Z,95.83
2023-02-26T01:11:17.574Z,95.83
2023-02-26T01:12:17.557Z,95.83
2023-02-26T01:13:17.564Z,95.83
2023-02-26T01:14:17.537Z,95.72
2023-02-26T01:15:17.523Z,95.83
2023-02-26T01:16:17.577Z,96.14
2023-02-26T01:17:17.502Z,96.92
2023-02-26T01:18:17.530Z,97.03
2023-02-26T01:19:17.478Z,97.03
2023-02-26T01:20:17.465Z,97.03
2023-02-26T01:21:17.458Z,96.92
2023-02-26T01:22:17.438Z,96.92
2023-02-26T01:23:17.442Z,97.24
2023-02-26T01:24:17.415Z,97.45
2023-02-26T01:25:17.399Z,97.55
2023-02-26T01:26:17.388Z,97.60
2023-02-26T01:27:17.372Z,97.81
2023-02-26T01:28:17.376Z,97.81
2023-02-26T01:29:17.352Z,97.91
2023-02-26T01:30:17.339Z,98.02
2023-02-26T01:31:17.449Z,98.13
2023-02-26T01:32:17.493Z,98.27
2023-02-26T01:33:17.320Z,98.38
2023-02-26T01:34:17.292Z,98.69
2023-02-26T01:35:17.273Z,98.80
2023-02-26T01:36:17.263Z,98.80
2023-02-26T01:37:17.246Z,98.59
2023-02-26T01:38:17.262Z,98.69
2023-02-26T01:39:17.221Z,98.49
2023-02-26T01:40:17.225Z,98.17
2023-02-26T01:41:17.197Z,97.85
2023-02-26T01:42:17.192Z,97.96
2023-02-26T01:43:17.212Z,98.38
2023-02-26T01:44:17.170Z,98.27
2023-02-26T01:45:17.148Z,98.49
2023-02-26T01:46:17.163Z,98.69
2023-02-26T01:47:17.126Z,98.17
2023-02-26T01:48:17.168Z,98.07
2023-02-26T01:49:17.111Z,98.17
2023-02-26T01:50:17.094Z,97.85
2023-02-26T01:51:17.075Z,97.49
2023-02-26T01:52:17.065Z,97.28
2023-02-26T01:53:17.052Z,97.11
2023-02-26T01:54:17.069Z,97.22
2023-02-26T01:55:17.033Z,97.11
2023-02-26T01:56:17.022Z,97.11
2023-02-26T01:57:16.999Z,97.33
2023-02-26T01:58:16.992Z,97.33
2023-02-26T01:59:16.992Z,97.11
2023-02-26T02:00:16.969Z,97.22
2023-02-26T02:01:16.949Z,97.22
2023-02-26T02:02:16.988Z,97.37
2023-02-26T02:03:17.044Z,97.33
2023-02-26T02:04:16.950Z,97.43
2023-02-26T02:05:16.905Z,97.53
2023-02-26T02:06:16.893Z,97.53
2023-02-26T02:07:16.882Z,98.21
2023-02-26T02:08:16.865Z,98.53
2023-02-26T02:09:16.871Z,99.05
2023-02-26T02:10:16.848Z,99.16
2023-02-26T02:11:16.827Z,99.27
2023-02-26T02:12:16.813Z,99.16
2023-02-26T02:13:16.803Z,99.27
2023-02-26T02:14:16.806Z,99.16
2023-02-26T02:15:16.779Z,99.27
2023-02-26T02:16:16.838Z,99.16
2023-02-26T02:17:16.759Z,99.27
2023-02-26T02:18:16.737Z,99.52
2023-02-26T02:19:16.738Z,99.69
2023-02-26T02:20:16.734Z,99.48
2023-02-26T02:21:16.698Z,99.37
2023-02-26T02:22:16.685Z,99.16
2023-02-26T02:23:16.677Z,99.16
2023-02-26T02:24:16.673Z,99.16
2023-02-26T02:25:16.656Z,99.05
2023-02-26T02:26:16.644Z,99.16
2023-02-26T02:27:16.620Z,99.16
2023-02-26T02:28:16.616Z,99.05
2023-02-26T02:29:16.608Z,98.74
2023-02-26T02:30:16.589Z,98.74
2023-02-26T02:31:16.630Z,98.74
2023-02-26T02:32:16.652Z,98.95
2023-02-26T02:33:16.545Z,99.16
2023-02-26T02:34:16.547Z,99.48
2023-02-26T02:35:16.525Z,99.58
2023-02-26T02:36:16.529Z,99.27
2023-02-26T02:37:16.500Z,99.05
2023-02-26T02:38:16.487Z,99.05
2023-02-26T02:39:16.489Z,98.99
2023-02-26T02:40:16.467Z,98.85
2023-02-26T02:41:16.448Z,98.89
2023-02-26T02:42:16.439Z,98.89
2023-02-26T02:43:16.417Z,98.99
2023-02-26T02:44:16.427Z,98.99
2023-02-26T02:45:16.398Z,98.89
2023-02-26T02:46:16.592Z,99.10
2023-02-26T02:47:16.372Z,98.99
2023-02-26T02:48:16.366Z,99.10
2023-02-26T02:49:16.363Z,99.41
2023-02-26T02:50:16.368Z,99.63
2023-02-26T02:51:16.320Z,99.52
2023-02-26T02:52:16.334Z,99.63
2023-02-26T02:53:16.303Z,99.21
2023-02-26T02:54:16.308Z,98.89
2023-02-26T02:55:16.285Z,98.68
2023-02-26T02:56:16.262Z,98.57
2023-02-26T02:57:16.245Z,98.99
2023-02-26T02:58:16.235Z,99.21
2023-02-26T02:59:16.247Z,98.99
2023-02-26T03:00:16.213Z,99.21
2023-02-26T03:01:16.235Z,99.73
2023-02-26T03:02:16.362Z,99.99
2023-02-26T03:03:16.176Z,99.84
2023-02-26T03:04:16.181Z,99.73
2023-02-26T03:05:16.160Z,99.63
2023-02-26T03:06:16.142Z,99.95
2023-02-26T03:07:16.125Z,99.99
2023-02-26T03:08:16.136Z,99.99
2023-02-26T03:09:16.117Z,99.99
2023-02-26T03:10:16.133Z,99.99
2023-02-26T03:11:16.086Z,99.99
2023-02-26T03:12:16.083Z,99.99
2023-02-26T03:13:16.051Z,99.99
2023-02-26T03:14:16.054Z,99.99
2023-02-26T03:15:16.030Z,99.99
2023-02-26T03:16:16.068Z,99.99
2023-02-26T03:17:15.998Z,99.99
2023-02-26T03:18:15.993Z,99.99
2023-02-26T03:19:15.993Z,99.99
2023-02-26T03:20:15.966Z,99.99
2023-02-26T03:21:15.956Z,99.99
2023-02-26T03:22:15.950Z,99.99
2023-02-26T03:23:15.932Z,99.99
2023-02-26T03:24:15.952Z,99.99
2023-02-26T03:25:15.906Z,99.79
2023-02-26T03:26:15.892Z,99.27
2023-02-26T03:27:15.878Z,99.27
2023-02-26T03:28:15.878Z,99.05
2023-02-26T03:29:15.893Z,99.05
2023-02-26T03:30:15.844Z,99.05
2023-02-26T03:31:15.946Z,98.99
2023-02-26T03:32:15.923Z,99.31
2023-02-26T03:33:15.824Z,99.41
2023-02-26T03:34:15.802Z,99.41
2023-02-26T03:35:15.804Z,99.21
2023-02-26T03:36:15.772Z,98.99
2023-02-26T03:37:15.782Z,99.10
2023-02-26T03:38:15.753Z,98.99
2023-02-26T03:39:15.736Z,98.89
2023-02-26T03:40:15.763Z,98.89
2023-02-26T03:41:15.711Z,98.47
2023-02-26T03:42:15.700Z,98.57
2023-02-26T03:43:15.685Z,98.57
2023-02-26T03:44:15.674Z,98.57
2023-02-26T03:45:15.679Z,98.57
2023-02-26T03:46:15.715Z,98.68
2023-02-26T03:47:15.649Z,98.89
2023-02-26T03:48:15.634Z,98.89
2023-02-26T03:49:15.651Z,98.89
2023-02-26T03:50:15.616Z,98.99
2023-02-26T03:51:15.587Z,99.10
2023-02-26T03:52:15.577Z,99.10
2023-02-26T03:53:15.560Z,99.10
2023-02-26T03:54:15.548Z,98.89
2023-02-26T03:55:15.581Z,98.68
2023-02-26T03:56:15.543Z,98.47
2023-02-26T03:57:15.517Z,98.47
2023-02-26T03:58:15.502Z,98.57
2023-02-26T03:59:15.490Z,98.57
2023-02-26T04:00:15.491Z,98.93
2023-02-26T04:01:15.460Z,99.15
2023-02-26T04:02:15.471Z,99.04
2023-02-26T04:03:15.454Z,99.15
2023-02-26T04:04:15.551Z,99.15
2023-02-26T04:05:15.428Z,99.04
2023-02-26T04:06:15.409Z,99.04
2023-02-26T04:07:15.390Z,99.15
2023-02-26T04:08:15.372Z,99.25
2023-02-26T04:09:16.256Z,99.25
2023-02-26T04:10:15.363Z,99.35
2023-02-26T04:11:15.348Z,99.57
2023-02-26T04:12:15.459Z,99.57
2023-02-26T04:13:15.334Z,99.67
2023-02-26T04:14:15.302Z,99.88
2023-02-26T04:15:15.307Z,99.72
2023-02-26T04:16:15.316Z,99.99
2023-02-26T04:17:15.264Z,99.99
2023-02-26T04:18:15.252Z,99.99
2023-02-26T04:19:15.247Z,99.99
2023-02-26T04:20:15.243Z,99.99
2023-02-26T04:21:15.230Z,99.99
2023-02-26T04:22:15.201Z,99.99
2023-02-26T04:23:15.188Z,99.99
2023-02-26T04:24:15.176Z,99.99
2023-02-26T04:25:15.180Z,99.99
2023-02-26T04:26:15.153Z,99.99
2023-02-26T04:27:15.142Z,99.99
2023-02-26T04:28:15.152Z,99.99
2023-02-26T04:29:15.116Z,99.99
2023-02-26T04:30:15.119Z,99.99
2023-02-26T04:31:15.208Z,99.99
2023-02-26T04:32:15.306Z,99.99
2023-02-26T04:33:15.068Z,99.99
2023-02-26T04:34:15.047Z,99.99
2023-02-26T04:35:15.062Z,99.99
2023-02-26T04:36:15.020Z,99.99
2023-02-26T04:37:15.008Z,99.99
2023-02-26T04:38:14.998Z,99.88
2023-02-26T04:39:14.990Z,99.67
2023-02-26T04:40:15.013Z,99.67
2023-02-26T04:41:14.978Z,99.78
2023-02-26T04:42:14.948Z,99.78
2023-02-26T04:43:14.939Z,99.99
2023-02-26T04:44:14.950Z,99.99
2023-02-26T04:45:14.914Z,99.99
2023-02-26T04:46:15.003Z,99.88
2023-02-26T04:47:14.899Z,99.78
2023-02-26T04:48:14.871Z,99.78
2023-02-26T04:49:14.857Z,99.88
2023-02-26T04:50:14.856Z,99.88
2023-02-26T04:51:14.851Z,99.99
2023-02-26T04:52:14.890Z,99.99
2023-02-26T04:53:14.813Z,99.99
2023-02-26T04:54:14.798Z,99.99
2023-02-26T04:55:14.795Z,99.99
2023-02-26T04:56:14.794Z,99.99
2023-02-26T04:57:14.761Z,99.99
2023-02-26T04:58:14.746Z,99.99
2023-02-26T04:59:14.742Z,99.99
2023-02-26T05:00:14.740Z,99.99
2023-02-26T05:01:14.856Z,99.84
2023-02-26T05:02:14.699Z,99.84
2023-02-26T05:03:14.686Z,99.99
2023-02-26T05:04:14.730Z,99.99
2023-02-26T05:05:14.664Z,99.99
2023-02-26T05:06:14.676Z,99.99
2023-02-26T05:07:14.636Z,99.99
2023-02-26T05:08:14.630Z,99.99
2023-02-26T05:09:14.615Z,99.99
2023-02-26T05:10:14.605Z,99.99
2023-02-26T05:11:14.605Z,99.99
2023-02-26T05:12:14.582Z,99.99
2023-02-26T05:13:14.578Z,99.99
2023-02-26T05:14:14.554Z,99.99
2023-02-26T05:15:14.542Z,99.99
2023-02-26T05:16:14.629Z,99.96
2023-02-26T05:17:14.524Z,99.75
2023-02-26T05:18:14.539Z,99.49
2023-02-26T05:19:14.492Z,99.39
2023-02-26T05:20:14.477Z,99.28
2023-02-26T05:21:14.493Z,99.07
2023-02-26T05:22:14.456Z,98.86
2023-02-26T05:23:14.448Z,98.55
2023-02-26T05:24:14.431Z,98.39
2023-02-26T05:25:14.430Z,98.18
2023-02-26T05:26:14.417Z,97.87
2023-02-26T05:27:14.395Z,97.76
2023-02-26T05:28:14.381Z,97.55
2023-02-26T05:29:14.373Z,97.45
2023-02-26T05:30:14.353Z,97.24
2023-02-26T05:31:14.382Z,97.13
2023-02-26T05:32:14.381Z,97.03
2023-02-26T05:33:14.324Z,96.92
2023-02-26T05:34:14.309Z,96.92
2023-02-26T05:35:14.295Z,96.81
2023-02-26T05:36:14.297Z,96.71
2023-02-26T05:37:14.267Z,96.71
2023-02-26T05:38:14.256Z,96.71
2023-02-26T05:39:14.240Z,96.71
2023-02-26T05:40:14.227Z,96.71
2023-02-26T05:41:14.232Z,96.71
2023-02-26T05:42:14.202Z,96.81
2023-02-26T05:43:14.195Z,96.81
2023-02-26T05:44:14.185Z,96.67
2023-02-26T05:45:14.173Z,96.45
2023-02-26T05:46:14.236Z,96.25
2023-02-26T05:47:14.145Z,96.03
2023-02-26T05:48:14.148Z,95.83
2023-02-26T05:49:14.127Z,95.72
2023-02-26T05:50:14.119Z,95.62
2023-02-26T05:51:14.134Z,95.51
2023-02-26T05:52:14.082Z,95.30
2023-02-26T05:53:14.070Z,95.15
2023-02-26T05:54:14.065Z,95.09
2023-02-26T05:55:14.048Z,95.09
2023-02-26T05:56:14.732Z,94.94
2023-02-26T05:57:14.040Z,94.84
2023-02-26T05:58:14.003Z,94.73
2023-02-26T05:59:13.989Z,94.62
2023-02-26T06:00:13.976Z,94.62
2023-02-26T06:01:13.968Z,94.52
2023-02-26T06:02:14.091Z,94.42
2023-02-26T06:03:13.976Z,94.31
2023-02-26T06:04:13.947Z,94.21
2023-02-26T06:05:13.915Z,94.10
2023-02-26T06:06:13.896Z,94.10
2023-02-26T06:07:13.909Z,94.21
2023-02-26T06:08:13.884Z,94.21
2023-02-26T06:09:13.863Z,94.21
2023-02-26T06:10:13.853Z,94.21
2023-02-26T06:11:13.842Z,94.10
2023-02-26T06:12:13.848Z,93.99
2023-02-26T06:13:13.822Z,94.10
2023-02-26T06:14:13.803Z,94.10
2023-02-26T06:15:13.790Z,93.95
2023-02-26T06:16:13.816Z,94.06
2023-02-26T06:17:13.779Z,93.95
2023-02-26T06:18:13.810Z,93.74
2023-02-26T06:19:13.739Z,93.74
2023-02-26T06:20:13.753Z,93.53
2023-02-26T06:21:13.717Z,93.53
2023-02-26T06:22:13.715Z,93.63
2023-02-26T06:23:13.695Z,93.63
2023-02-26T06:24:13.694Z,93.63
2023-02-26T06:25:13.686Z,93.74
2023-02-26T06:26:13.654Z,93.74
2023-02-26T06:27:13.678Z,93.74
2023-02-26T06:28:13.631Z,93.74
2023-02-26T06:29:13.614Z,93.85
2023-02-26T06:30:13.603Z,93.70
2023-02-26T06:31:13.619Z,93.59
2023-02-26T06:32:13.807Z,93.49
2023-02-26T06:33:13.572Z,93.59
2023-02-26T06:34:13.551Z,93.59
2023-02-26T06:35:13.547Z,93.70
2023-02-26T06:36:13.598Z,93.80
2023-02-26T06:37:13.564Z,93.80
2023-02-26T06:38:13.513Z,93.91
2023-02-26T06:39:13.512Z,93.80
2023-02-26T06:40:13.484Z,93.70
2023-02-26T06:41:13.476Z,93.49
2023-02-26T06:42:13.483Z,93.44
2023-02-26T06:43:13.459Z,93.44
2023-02-26T06:44:13.428Z,93.55
2023-02-26T06:45:13.420Z,93.55
2023-02-26T06:46:13.455Z,93.66
2023-02-26T06:47:13.401Z,93.55
2023-02-26T06:48:13.401Z,93.44
2023-02-26T06:49:13.372Z,93.30
2023-02-26T06:50:13.357Z,93.09
2023-02-26T06:51:13.354Z,92.46
2023-02-26T06:52:13.369Z,92.99
2023-02-26T06:53:13.337Z,93.09
2023-02-26T06:54:13.305Z,93.09
2023-02-26T06:55:13.300Z,92.83
2023-02-26T06:56:13.284Z,92.73
2023-02-26T06:57:13.276Z,92.69
2023-02-26T06:58:13.273Z,92.58
2023-02-26T06:59:13.246Z,92.27
2023-02-26T07:00:13.364Z,92.27
2023-02-26T07:01:13.281Z,91.81
2023-02-26T07:02:13.233Z,91.60
2023-02-26T07:03:13.234Z,91.08
2023-02-26T07:04:13.188Z,91.39
2023-02-26T07:05:13.176Z,91.18
2023-02-26T07:06:26.432Z,91.56
2023-02-26T07:07:13.154Z,91.46
2023-02-26T07:08:13.168Z,90.78
2023-02-26T07:09:13.150Z,90.36
2023-02-26T07:10:13.107Z,90.16
2023-02-26T07:11:13.103Z,89.80
2023-02-26T07:12:13.109Z,89.45
2023-02-26T07:13:13.085Z,88.50
2023-02-26T07:14:13.055Z,87.76
2023-02-26T07:15:13.043Z,86.63
2023-02-26T07:16:13.037Z,84.66
2023-02-26T07:17:13.025Z,81.15
2023-02-26T07:18:13.014Z,76.26
2023-02-26T07:19:12.991Z,74.74
2023-02-26T07:20:13.011Z,71.53
2023-02-26T07:21:12.969Z,69.37
2023-02-26T07:22:12.949Z,67.85
2023-02-26T07:23:12.958Z,67.71
2023-02-26T07:24:12.979Z,67.43
2023-02-26T07:25:12.924Z,67.29
2023-02-26T07:26:12.912Z,68.90
2023-02-26T07:27:12.885Z,69.90
2023-02-26T07:28:12.942Z,71.42
2023-02-26T07:29:12.867Z,72.52
2023-02-26T07:30:12.860Z,73.60
2023-02-26T07:31:13.000Z,74.70
2023-02-26T07:32:13.007Z,75.57
2023-02-26T07:33:13.815Z,75.92
2023-02-26T07:34:12.796Z,76.33
2023-02-26T07:35:12.795Z,76.54
2023-02-26T07:36:12.785Z,77.31
2023-02-26T07:37:12.756Z,77.97
2023-02-26T07:38:12.763Z,78.17
2023-02-26T07:39:12.731Z,77.80
2023-02-26T07:40:12.765Z,78.11
2023-02-26T07:41:12.702Z,78.35
2023-02-26T07:42:12.750Z,78.77
2023-02-26T07:43:12.694Z,78.73
2023-02-26T07:44:12.665Z,78.38
2023-02-26T07:45:12.655Z,77.48
2023-02-26T07:46:12.687Z,75.05
2023-02-26T07:47:12.625Z,71.11
2023-02-26T07:48:12.618Z,68.01
2023-02-26T07:49:12.612Z,65.75
2023-02-26T07:50:12.592Z,65.23
2023-02-26T07:51:12.589Z,64.04
2023-02-26T07:52:12.563Z,61.60
2023-02-26T07:53:12.553Z,61.98
2023-02-26T07:54:12.549Z,60.95
2023-02-26T07:55:12.597Z,60.38
2023-02-26T07:56:12.525Z,59.84
2023-02-26T07:57:12.500Z,60.23
2023-02-26T07:58:12.478Z,60.95
2023-02-26T07:59:12.487Z,61.29
2023-02-26T08:00:12.514Z,61.82
2023-02-26T08:01:12.459Z,63.40
2023-02-26T08:02:12.427Z,64.86
2023-02-26T08:03:12.411Z,66.68
2023-02-26T08:04:12.436Z,67.76
2023-02-26T08:05:12.404Z,67.61
2023-02-26T08:06:12.376Z,67.99
2023-02-26T08:07:12.361Z,67.92
2023-02-26T08:08:12.345Z,67.61
2023-02-26T08:09:12.354Z,67.30
2023-02-26T08:10:12.352Z,67.76
2023-02-26T08:11:12.326Z,68.38
2023-02-26T08:12:12.317Z,68.17
2023-02-26T08:13:12.291Z,68.31
2023-02-26T08:14:12.287Z,66.96
2023-02-26T08:15:12.339Z,67.96
2023-02-26T08:16:12.314Z,69.06
2023-02-26T08:17:12.235Z,69.61
2023-02-26T08:18:12.223Z,70.23
2023-02-26T08:19:12.235Z,70.86
2023-02-26T08:20:12.223Z,70.72
2023-02-26T08:21:12.189Z,70.06
2023-02-26T08:22:12.162Z,70.58
2023-02-26T08:23:12.148Z,71.13
2023-02-26T08:24:12.155Z,72.17
2023-02-26T08:25:12.271Z,72.17
2023-02-26T08:26:12.117Z,73.03
2023-02-26T08:27:13.614Z,72.97
2023-02-26T08:28:12.108Z,72.66
2023-02-26T08:29:12.088Z,73.69
2023-02-26T08:30:12.224Z,73.80
2023-02-26T08:31:12.111Z,73.80
2023-02-26T08:32:12.140Z,73.49
2023-02-26T08:33:12.033Z,73.35
2023-02-26T08:34:12.026Z,72.83
2023-02-26T08:35:12.141Z,72.03
2023-02-26T08:36:11.993Z,71.93
2023-02-26T08:37:11.969Z,71.20
2023-02-26T08:38:11.968Z,71.00
2023-02-26T08:39:11.961Z,70.89
2023-02-26T08:40:14.788Z,71.17
2023-02-26T08:41:11.909Z,71.10
2023-02-26T08:42:11.912Z,70.61
2023-02-26T08:43:11.896Z,70.97
2023-02-26T08:44:11.963Z,70.75
2023-02-26T08:45:11.999Z,70.86
2023-02-26T08:46:11.875Z,71.10
2023-02-26T08:47:13.606Z,71.10
2023-02-26T08:48:11.845Z,71.55
2023-02-26T08:49:11.820Z,71.44
2023-02-26T08:50:11.973Z,71.20
2023-02-26T08:51:11.791Z,70.79
2023-02-26T08:52:11.774Z,70.82
2023-02-26T08:53:11.760Z,71.03
2023-02-26T08:54:11.752Z,70.95
2023-02-26T08:55:11.744Z,71.48
2023-02-26T08:56:11.720Z,71.89
2023-02-26T08:57:11.720Z,72.31
2023-02-26T08:58:11.708Z,72.72
2023-02-26T08:59:13.347Z,72.49
2023-02-26T09:00:23.036Z,72.49
2023-02-26T09:01:11.654Z,72.28
2023-02-26T09:02:11.744Z,71.34
2023-02-26T09:03:11.713Z,71.48
2023-02-26T09:04:11.617Z,71.37
2023-02-26T09:05:11.627Z,71.58
2023-02-26T09:06:11.588Z,71.34
2023-02-26T09:07:11.575Z,71.13
2023-02-26T09:08:11.582Z,70.64
2023-02-26T09:09:11.547Z,70.95
2023-02-26T09:10:11.565Z,71.06
2023-02-26T09:11:11.521Z,70.95
2023-02-26T09:12:11.510Z,70.51
2023-02-26T09:13:11.496Z,70.40
2023-02-26T09:14:11.484Z,70.09
2023-02-26T09:15:11.501Z,69.74
2023-02-26T09:16:11.501Z,69.26
2023-02-26T09:17:11.443Z,69.64
2023-02-26T09:18:11.449Z,69.02
2023-02-26T09:19:11.520Z,68.71
2023-02-26T09:20:11.430Z,68.57
2023-02-26T09:21:11.462Z,66.02
2023-02-26T09:22:11.380Z,62.90
2023-02-26T09:23:11.364Z,60.88
2023-02-26T09:24:11.352Z,61.11
2023-02-26T09:25:11.364Z,61.76
2023-02-26T09:26:11.322Z,62.05
2023-02-26T09:27:11.307Z,62.42
2023-02-26T09:28:11.350Z,63.44
2023-02-26T09:29:11.285Z,63.96
2023-02-26T09:30:11.442Z,64.58
2023-02-26T09:31:11.326Z,64.48
2023-02-26T09:32:11.343Z,64.33
2023-02-26T09:33:11.234Z,64.89
2023-02-26T09:34:11.699Z,63.48
2023-02-26T09:35:11.225Z,63.82
2023-02-26T09:36:11.203Z,64.06
2023-02-26T09:37:11.179Z,64.89
2023-02-26T09:38:11.178Z,64.79
2023-02-26T09:39:11.159Z,64.58
2023-02-26T09:40:11.156Z,64.76
2023-02-26T09:41:11.128Z,62.37
2023-02-26T09:42:11.124Z,61.69
2023-02-26T09:43:11.099Z,62.21
2023-02-26T09:44:11.091Z,61.15
2023-02-26T09:45:11.085Z,61.36
2023-02-26T09:46:11.114Z,60.63
2023-02-26T09:47:11.050Z,56.57
2023-02-26T09:48:11.065Z,56.88
2023-02-26T09:49:11.025Z,58.07
2023-02-26T09:50:11.028Z,57.81
2023-02-26T09:51:11.028Z,58.20
2023-02-26T09:52:10.991Z,57.78
2023-02-26T09:53:10.965Z,55.90
2023-02-26T09:54:10.986Z,53.81
2023-02-26T09:55:10.959Z,51.82
2023-02-26T09:56:10.933Z,51.34
2023-02-26T09:57:10.919Z,51.04
2023-02-26T09:58:10.902Z,50.69
2023-02-26T09:59:10.909Z,49.59
2023-02-26T10:00:10.881Z,48.09
2023-02-26T10:01:10.880Z,47.72
2023-02-26T10:02:10.871Z,46.80
2023-02-26T10:03:10.843Z,46.25
2023-02-26T10:04:10.920Z,45.12
2023-02-26T10:05:10.815Z,45.45
2023-02-26T10:06:10.815Z,47.22
2023-02-26T10:07:10.783Z,47.40
2023-02-26T10:08:10.777Z,48.28
2023-02-26T10:09:10.765Z,48.55
2023-02-26T10:10:10.748Z,47.81
2023-02-26T10:11:10.746Z,47.89
2023-02-26T10:12:10.720Z,47.96
2023-02-26T10:13:10.710Z,46.89
2023-02-26T10:14:10.696Z,47.75
2023-02-26T10:15:10.684Z,48.14
2023-02-26T10:16:12.516Z,47.25
2023-02-26T10:17:10.665Z,46.59
2023-02-26T10:18:10.644Z,45.04
2023-02-26T10:19:10.627Z,44.32
2023-02-26T10:20:10.645Z,45.31
2023-02-26T10:21:10.637Z,44.73
2023-02-26T10:22:10.590Z,42.83
2023-02-26T10:23:10.573Z,43.65
2023-02-26T10:24:10.561Z,41.47
2023-02-26T10:25:10.548Z,42.51
2023-02-26T10:26:10.550Z,42.21
2023-02-26T10:27:10.528Z,42.39
2023-02-26T10:28:10.515Z,41.66
2023-02-26T10:29:10.495Z,40.56
2023-02-26T10:30:10.486Z,41.56
2023-02-26T10:31:10.542Z,41.93
2023-02-26T10:32:10.550Z,40.26
2023-02-26T10:33:10.439Z,39.20
2023-02-26T10:34:10.429Z,39.53
2023-02-26T10:35:10.421Z,39.71
2023-02-26T10:36:10.440Z,40.00
2023-02-26T10:37:10.389Z,39.67
2023-02-26T10:38:10.371Z,38.52
2023-02-26T10:39:10.358Z,38.10
2023-02-26T10:40:10.343Z,39.28
2023-02-26T10:41:10.348Z,42.35
2023-02-26T10:42:10.327Z,43.91
2023-02-26T10:43:10.314Z,44.96
2023-02-26T10:44:10.297Z,43.47
2023-02-26T10:45:10.279Z,41.27
2023-02-26T10:46:10.613Z,41.78
2023-02-26T10:47:10.262Z,42.94
2023-02-26T10:48:10.257Z,42.27
2023-02-26T10:49:10.234Z,41.94
2023-02-26T10:50:10.218Z,40.61
2023-02-26T10:51:10.230Z,39.72
2023-02-26T10:52:10.214Z,38.75
2023-02-26T10:53:10.178Z,37.96
2023-02-26T10:54:10.175Z,38.07
2023-02-26T10:55:10.148Z,40.05
2023-02-26T10:56:10.155Z,40.74
2023-02-26T10:57:10.128Z,42.36
2023-02-26T10:58:10.114Z,43.14
2023-02-26T10:59:10.096Z,45.33
2023-02-26T11:00:10.083Z,45.90
2023-02-26T11:01:10.170Z,46.87
2023-02-26T11:02:10.115Z,46.79
2023-02-26T11:03:10.046Z,47.86
2023-02-26T11:04:10.032Z,48.72
2023-02-26T11:05:10.022Z,49.18
2023-02-26T11:06:10.032Z,50.75
2023-02-26T11:07:09.996Z,51.50
2023-02-26T11:08:10.025Z,52.53
2023-02-26T11:09:09.975Z,52.03
2023-02-26T11:10:09.960Z,51.75
2023-02-26T11:11:09.963Z,52.29
2023-02-26T11:12:09.946Z,53.11
2023-02-26T11:13:09.915Z,53.45
2023-02-26T11:14:09.903Z,53.34
2023-02-26T11:15:09.898Z,54.27
2023-02-26T11:16:09.948Z,54.35
2023-02-26T11:17:09.867Z,53.74
2023-02-26T11:18:09.850Z,54.06
2023-02-26T11:19:09.834Z,54.27
2023-02-26T11:20:09.831Z,54.69
2023-02-26T11:21:09.811Z,54.48
2023-02-26T11:22:09.877Z,54.35
2023-02-26T11:23:09.782Z,55.20
2023-02-26T11:24:09.808Z,55.23
2023-02-26T11:25:09.764Z,54.63
2023-02-26T11:26:09.751Z,55.15
2023-02-26T11:27:09.743Z,55.98
2023-02-26T11:28:09.719Z,55.77
2023-02-26T11:29:09.706Z,55.87
2023-02-26T11:30:09.694Z,56.18
2023-02-26T11:31:09.769Z,56.70
2023-02-26T11:32:09.852Z,57.11
2023-02-26T11:33:09.653Z,57.11
2023-02-26T11:34:09.680Z,56.29
2023-02-26T11:35:09.651Z,56.60
2023-02-26T11:36:09.617Z,56.85
2023-02-26T11:37:09.625Z,56.75
2023-02-26T11:38:09.608Z,56.96
2023-02-26T11:39:09.585Z,56.75
2023-02-26T11:40:09.579Z,57.48
2023-02-26T11:41:09.550Z,57.37
2023-02-26T11:42:09.553Z,57.24
2023-02-26T11:43:09.524Z,56.60
2023-02-26T11:44:09.541Z,56.65
2023-02-26T11:45:09.501Z,54.74
2023-02-26T11:46:09.672Z,54.22
2023-02-26T11:47:09.487Z,54.20
2023-02-26T11:48:09.454Z,54.43
2023-02-26T11:49:09.446Z,54.20
2023-02-26T11:50:09.451Z,54.12
2023-02-26T11:51:09.413Z,54.43
2023-02-26T11:52:09.417Z,54.66
2023-02-26T11:53:09.389Z,55.59
2023-02-26T11:54:09.377Z,55.18
2023-02-26T11:55:09.360Z,54.97
2023-02-26T11:56:09.366Z,55.62
2023-02-26T11:57:09.346Z,55.64
2023-02-26T11:58:09.318Z,56.37
2023-02-26T11:59:09.302Z,56.37
2023-02-26T12:00:09.294Z,56.16
2023-02-26T12:01:09.271Z,56.46
2023-02-26T12:02:09.275Z,56.88
2023-02-26T12:03:09.248Z,56.90
2023-02-26T12:04:09.236Z,57.11
2023-02-26T12:05:09.218Z,57.24
2023-02-26T12:06:09.206Z,57.97
2023-02-26T12:07:09.211Z,57.97
2023-02-26T12:08:09.208Z,58.17
2023-02-26T12:09:09.173Z,58.35
2023-02-26T12:10:09.173Z,58.45
2023-02-26T12:11:09.147Z,57.70
2023-02-26T12:12:09.195Z,57.50
2023-02-26T12:13:09.122Z,57.09
2023-02-26T12:14:09.114Z,56.98
2023-02-26T12:15:09.092Z,56.88
2023-02-26T12:16:09.107Z,56.49
2023-02-26T12:17:09.079Z,57.19
2023-02-26T12:18:09.052Z,57.24
2023-02-26T12:19:09.040Z,56.73
2023-02-26T12:20:09.026Z,56.44
2023-02-26T12:21:09.015Z,56.54
2023-02-26T12:22:09.023Z,56.65
2023-02-26T12:23:08.982Z,56.88
2023-02-26T12:24:09.016Z,57.21
2023-02-26T12:25:08.961Z,57.11
2023-02-26T12:26:08.948Z,57.42
2023-02-26T12:27:08.931Z,57.65
2023-02-26T12:28:08.958Z,57.76
2023-02-26T12:29:08.916Z,58.28
2023-02-26T12:30:08.897Z,58.45
2023-02-26T12:31:09.025Z,57.86
2023-02-26T12:32:09.036Z,58.40
2023-02-26T12:33:08.871Z,58.92
2023-02-26T12:34:08.846Z,58.38
2023-02-26T12:35:08.869Z,57.73
2023-02-26T12:36:08.817Z,57.94
2023-02-26T12:37:08.809Z,57.63
2023-02-26T12:38:08.813Z,57.60
2023-02-26T12:39:08.883Z,57.91
2023-02-26T12:40:11.797Z,57.63
2023-02-26T12:41:08.775Z,58.25
2023-02-26T12:42:08.744Z,58.66
2023-02-26T12:43:08.756Z,58.40
2023-02-26T12:44:08.747Z,58.61
2023-02-26T12:45:08.705Z,58.84
2023-02-26T12:46:08.691Z,58.84
2023-02-26T12:47:08.677Z,59.99
2023-02-26T12:48:08.677Z,59.75
2023-02-26T12:49:08.652Z,59.55
2023-02-26T12:50:08.636Z,59.72
2023-02-26T12:51:08.624Z,58.38
2023-02-26T12:52:08.609Z,57.58